createdAt,value
2018-12-11T00:01:50.214Z,29.89
2018-12-11T00:04:16.554Z,29.95
2018-12-11T00:06:42.914Z,30.00
2018-12-11T00:09:09.242Z,29.82
2018-12-11T00:11:35.677Z,29.95
2018-12-11T00:14:02.010Z,29.88
2018-12-11T00:16:28.408Z,29.88
2018-12-11T00:18:54.787Z,29.90
2018-12-11T00:21:21.192Z,29.90
2018-12-11T00:23:47.552Z,29.80
2018-12-11T00:26:13.889Z,29.73
2018-12-11T00:28:40.403Z,29.77
2018-12-11T00:31:06.729Z,29.63
2018-12-11T00:33:33.106Z,29.78
2018-12-11T00:35:59.430Z,29.86
2018-12-11T00:38:25.766Z,29.70
2018-12-11T00:40:52.134Z,29.79
2018-12-11T00:43:18.454Z,29.75
2018-12-11T00:45:44.806Z,29.87
2018-12-11T00:48:11.150Z,29.75
2018-12-11T00:50:37.465Z,29.86
2018-12-11T00:53:03.851Z,29.85
2018-12-11T00:55:30.205Z,29.84
2018-12-11T00:57:56.543Z,29.84
2018-12-11T01:00:22.919Z,30.00
2018-12-11T01:02:49.247Z,29.47
2018-12-11T01:05:15.572Z,28.20
2018-12-11T01:07:41.908Z,28.18
2018-12-11T01:10:08.240Z,28.74
2018-12-11T01:12:34.581Z,28.58
2018-12-11T01:15:00.965Z,28.80
2018-12-11T01:17:27.470Z,28.68
2018-12-11T01:19:53.876Z,28.61
2018-12-11T01:22:20.207Z,28.76
2018-12-11T01:24:46.611Z,28.73
2018-12-11T01:27:13.039Z,28.89
2018-12-11T01:29:39.387Z,28.65
2018-12-11T01:32:05.683Z,28.72
2018-12-11T01:34:32.153Z,28.54
2018-12-11T01:36:58.495Z,28.06
2018-12-11T01:39:24.896Z,28.34
2018-12-11T01:41:51.284Z,28.18
2018-12-11T01:44:17.628Z,28.36
2018-12-11T01:46:44.048Z,28.34
2018-12-11T01:49:10.493Z,28.43
2018-12-11T01:51:36.846Z,28.46
2018-12-11T01:54:03.210Z,28.18
2018-12-11T01:56:29.627Z,28.23
2018-12-11T01:58:55.957Z,28.28
2018-12-11T02:01:22.342Z,28.16
2018-12-11T02:03:48.666Z,28.22
2018-12-11T02:06:15.025Z,27.94
2018-12-11T02:08:41.367Z,27.84
2018-12-11T02:11:07.748Z,27.51
2018-12-11T02:13:34.080Z,27.70
2018-12-11T02:16:00.403Z,27.44
2018-12-11T02:18:26.751Z,27.21
2018-12-11T02:20:53.086Z,26.98
2018-12-11T02:23:19.483Z,27.04
2018-12-11T02:25:45.830Z,27.01
2018-12-11T02:28:12.204Z,26.55
2018-12-11T02:30:38.556Z,26.42
2018-12-11T02:33:04.937Z,26.12
2018-12-11T02:35:31.266Z,25.76
2018-12-11T02:37:57.607Z,26.02
2018-12-11T02:40:23.950Z,25.74
2018-12-11T02:42:50.314Z,25.69
2018-12-11T02:45:16.607Z,25.57
2018-12-11T02:47:42.937Z,25.59
2018-12-11T02:50:09.341Z,25.61
2018-12-11T02:52:35.703Z,25.66
2018-12-11T02:55:02.125Z,25.57
2018-12-11T02:57:28.442Z,25.42
2018-12-11T02:59:54.782Z,25.31
2018-12-11T03:02:21.113Z,25.16
2018-12-11T03:04:47.576Z,25.14
2018-12-11T03:07:13.903Z,24.99
2018-12-11T03:09:40.247Z,24.94
2018-12-11T03:12:06.616Z,24.90
2018-12-11T03:14:32.924Z,24.97
2018-12-11T03:16:59.308Z,24.83
2018-12-11T03:19:25.633Z,24.84
2018-12-11T03:21:52.022Z,24.86
2018-12-11T03:24:18.370Z,24.77
2018-12-11T03:26:44.782Z,24.85
2018-12-11T03:29:11.084Z,24.64
2018-12-11T03:31:37.460Z,24.74
2018-12-11T03:34:03.788Z,24.54
2018-12-11T03:36:30.121Z,24.52
2018-12-11T03:38:56.491Z,24.42
2018-12-11T03:41:22.918Z,24.39
2018-12-11T03:43:49.296Z,24.32
2018-12-11T03:46:15.620Z,24.15
2018-12-11T03:48:41.957Z,24.34
2018-12-11T03:51:08.400Z,24.54
2018-12-11T03:53:34.649Z,24.36
2018-12-11T03:56:00.998Z,24.26
2018-12-11T03:58:27.335Z,24.27
2018-12-11T04:00:53.659Z,24.03
2018-12-11T04:03:20.040Z,24.03
2018-12-11T04:05:46.447Z,24.04
2018-12-11T04:08:12.902Z,24.06
2018-12-11T04:13:14.439Z,23.90
2018-12-11T04:15:40.771Z,24.13
2018-12-11T04:18:07.117Z,24.14
2018-12-11T04:20:33.494Z,24.16
2018-12-11T04:22:59.943Z,24.06
2018-12-11T04:25:26.190Z,24.12
2018-12-11T04:27:52.584Z,24.08
2018-12-11T04:30:18.925Z,24.19
2018-12-11T04:32:45.259Z,24.06
2018-12-11T04:35:11.602Z,24.28
2018-12-11T04:37:37.932Z,24.08
2018-12-11T04:40:04.341Z,24.47
2018-12-11T04:42:30.708Z,25.09
2018-12-11T04:44:57.055Z,25.39
2018-12-11T04:47:23.384Z,25.07
2018-12-11T04:49:49.721Z,25.14
2018-12-11T04:52:16.165Z,24.92
2018-12-11T04:54:42.482Z,24.83
2018-12-11T04:57:08.804Z,24.40
2018-12-11T04:59:35.138Z,24.40
2018-12-11T05:02:01.466Z,24.28
2018-12-11T05:04:27.796Z,24.28
2018-12-11T05:06:54.176Z,24.47
2018-12-11T05:09:20.527Z,24.32
2018-12-11T05:11:46.889Z,24.25
2018-12-11T05:14:13.232Z,24.18
2018-12-11T05:16:39.639Z,23.96
2018-12-11T05:19:05.963Z,23.74
2018-12-11T05:21:32.358Z,23.66
2018-12-11T05:23:58.688Z,23.61
2018-12-11T05:26:25.019Z,23.64
2018-12-11T05:28:51.364Z,23.59
2018-12-11T05:31:17.696Z,23.72
2018-12-11T05:33:44.035Z,23.87
2018-12-11T05:36:10.372Z,23.85
2018-12-11T05:38:36.798Z,23.84
2018-12-11T05:41:03.131Z,23.73
2018-12-11T05:43:29.516Z,23.59
2018-12-11T05:45:55.900Z,23.80
2018-12-11T05:48:22.236Z,24.10
2018-12-11T05:50:48.585Z,24.53
2018-12-11T05:53:15.112Z,24.65
2018-12-11T05:55:41.475Z,24.61
2018-12-11T05:58:07.978Z,24.15
2018-12-11T06:00:34.386Z,24.93
2018-12-11T06:03:00.720Z,24.72
2018-12-11T06:05:27.042Z,24.44
2018-12-11T06:07:53.399Z,24.93
2018-12-11T06:10:19.828Z,25.41
2018-12-11T06:12:46.136Z,25.38
2018-12-11T06:15:12.488Z,24.96
2018-12-11T06:17:38.821Z,25.20
2018-12-11T06:20:05.174Z,25.09
2018-12-11T06:22:31.554Z,24.83
2018-12-11T06:24:57.912Z,24.81
2018-12-11T06:27:24.284Z,24.86
2018-12-11T06:29:52.726Z,25.02
2018-12-11T06:32:19.109Z,25.24
2018-12-11T06:34:45.566Z,24.71
2018-12-11T06:37:11.881Z,25.35
2018-12-11T06:39:38.206Z,25.09
2018-12-11T06:42:04.549Z,24.72
2018-12-11T06:44:30.946Z,24.43
2018-12-11T06:46:57.279Z,24.97
2018-12-11T06:49:23.676Z,24.44
2018-12-11T06:51:50.049Z,24.58
2018-12-11T06:54:16.406Z,24.81
2018-12-11T06:56:42.736Z,24.99
2018-12-11T06:59:09.701Z,24.60
2018-12-11T07:01:36.044Z,24.67
2018-12-11T07:04:02.409Z,24.14
2018-12-11T07:06:28.749Z,24.20
2018-12-11T07:08:55.111Z,24.61
2018-12-11T07:11:21.470Z,24.36
2018-12-11T07:13:47.823Z,24.42
2018-12-11T07:16:14.607Z,24.55
2018-12-11T07:18:41.001Z,24.16
2018-12-11T07:21:07.330Z,24.48
2018-12-11T07:23:33.739Z,23.28
2018-12-11T07:26:00.088Z,24.25
2018-12-11T07:28:26.500Z,24.33
2018-12-11T07:30:54.983Z,24.05
2018-12-11T07:33:21.316Z,24.24
2018-12-11T07:35:47.729Z,23.64
2018-12-11T07:38:14.083Z,23.08
2018-12-11T07:40:40.405Z,23.86
2018-12-11T07:43:06.801Z,23.22
2018-12-11T07:45:33.467Z,23.21
2018-12-11T07:47:59.807Z,23.10
2018-12-11T07:50:26.142Z,23.27
2018-12-11T07:52:52.555Z,23.30
2018-12-11T07:55:18.886Z,22.82
2018-12-11T07:57:45.343Z,23.84
2018-12-11T08:00:11.708Z,25.16
2018-12-11T08:02:38.118Z,24.57
2018-12-11T08:05:04.508Z,23.08
2018-12-11T08:07:30.852Z,22.80
2018-12-11T08:09:57.237Z,23.38
2018-12-11T08:12:23.600Z,23.77
2018-12-11T08:14:49.931Z,23.80
2018-12-11T08:17:16.396Z,24.00
2018-12-11T08:19:42.734Z,22.93
2018-12-11T08:22:09.082Z,23.21
2018-12-11T08:24:35.471Z,22.69
2018-12-11T08:27:01.816Z,22.81
2018-12-11T08:29:28.272Z,22.77
2018-12-11T08:31:55.064Z,22.79
2018-12-11T08:34:21.417Z,22.46
2018-12-11T08:36:47.821Z,22.29
2018-12-11T08:39:14.256Z,22.50
2018-12-11T08:41:40.608Z,22.40
2018-12-11T08:44:07.022Z,22.05
2018-12-11T08:46:33.462Z,21.87
2018-12-11T08:48:59.864Z,22.00
2018-12-11T08:51:26.189Z,22.02
2018-12-11T08:53:52.572Z,22.55
2018-12-11T08:56:18.980Z,22.43
2018-12-11T08:58:45.345Z,22.90
2018-12-11T09:01:11.786Z,22.42
2018-12-11T09:03:38.185Z,22.10
2018-12-11T09:06:04.557Z,22.35
2018-12-11T09:08:30.919Z,22.32
2018-12-11T09:10:57.666Z,21.83
2018-12-11T09:13:28.598Z,22.04
2018-12-11T09:15:55.361Z,21.50
2018-12-11T09:18:22.047Z,22.11
2018-12-11T09:20:48.404Z,21.57
2018-12-11T09:23:14.795Z,21.60
2018-12-11T09:25:41.173Z,21.54
2018-12-11T09:28:11.114Z,21.77
2018-12-11T09:30:34.928Z,21.82
2018-12-11T09:33:01.285Z,21.98
2018-12-11T09:35:27.660Z,22.84
2018-12-11T09:37:54.061Z,21.71
2018-12-11T09:40:24.524Z,21.57
2018-12-11T09:42:47.144Z,21.42
2018-12-11T09:45:13.478Z,21.57
2018-12-11T09:47:39.865Z,21.53
2018-12-11T09:50:06.202Z,21.59
2018-12-11T09:52:32.557Z,21.87
2018-12-11T09:54:58.893Z,21.11
2018-12-11T09:57:25.248Z,21.20
2018-12-11T09:59:51.625Z,21.43
2018-12-11T10:02:18.000Z,21.20
2018-12-11T10:04:44.432Z,21.40
2018-12-11T10:07:10.781Z,21.51
2018-12-11T10:09:37.127Z,21.62
2018-12-11T10:12:03.527Z,21.70
2018-12-11T10:17:15.191Z,20.99
2018-12-11T10:19:41.536Z,21.45
2018-12-11T10:22:07.900Z,21.56
2018-12-11T10:24:34.307Z,21.42
2018-12-11T10:27:00.645Z,21.09
2018-12-11T10:29:27.004Z,20.74
2018-12-11T10:31:53.436Z,21.12
2018-12-11T10:34:19.832Z,20.81
2018-12-11T10:36:46.609Z,20.40
2018-12-11T10:39:13.022Z,21.21
2018-12-11T10:41:39.401Z,21.55
2018-12-11T10:44:05.802Z,21.28
2018-12-11T10:46:33.931Z,21.10
2018-12-11T10:48:58.672Z,20.34
2018-12-11T10:51:25.021Z,20.90
2018-12-11T10:53:51.370Z,20.92
2018-12-11T10:56:17.752Z,21.15
2018-12-11T10:58:44.105Z,20.62
2018-12-11T11:01:10.602Z,20.66
2018-12-11T11:03:36.944Z,21.02
2018-12-11T11:06:03.282Z,20.94
2018-12-11T11:08:29.738Z,21.10
2018-12-11T11:10:56.120Z,20.74
2018-12-11T11:13:22.497Z,20.89
2018-12-11T11:15:48.810Z,20.52
2018-12-11T11:18:15.177Z,20.17
2018-12-11T11:20:41.519Z,20.58
2018-12-11T11:23:07.949Z,20.29
2018-12-11T11:25:34.335Z,20.26
2018-12-11T11:28:00.688Z,20.55
2018-12-11T11:30:27.103Z,20.60
2018-12-11T11:32:53.492Z,20.42
2018-12-11T11:35:19.903Z,20.73
2018-12-11T11:37:46.250Z,20.62
2018-12-11T11:40:12.603Z,20.32
2018-12-11T11:42:38.957Z,20.20
2018-12-11T11:45:05.326Z,19.94
2018-12-11T11:47:31.676Z,20.65
2018-12-11T11:49:58.048Z,20.12
2018-12-11T11:52:24.420Z,20.49
2018-12-11T11:54:50.871Z,20.77
2018-12-11T11:57:17.180Z,20.59
2018-12-11T11:59:43.523Z,20.78
2018-12-11T12:02:09.908Z,20.55
2018-12-11T12:04:36.242Z,20.69
2018-12-11T12:07:02.955Z,20.58
2018-12-11T12:09:29.285Z,20.35
2018-12-11T12:11:55.619Z,20.10
2018-12-11T12:14:21.991Z,19.84
2018-12-11T12:16:48.381Z,20.08
2018-12-11T12:19:14.765Z,20.16
2018-12-11T12:21:41.145Z,19.83
2018-12-11T12:24:07.484Z,19.99
2018-12-11T12:26:33.837Z,19.79
2018-12-11T12:29:00.189Z,19.89
2018-12-11T12:31:26.525Z,19.84
2018-12-11T12:33:52.863Z,19.84
2018-12-11T12:36:19.214Z,19.85
2018-12-11T12:38:45.632Z,19.79
2018-12-11T12:41:12.228Z,19.75
2018-12-11T12:43:38.558Z,20.01
2018-12-11T12:46:04.891Z,19.87
2018-12-11T12:48:31.493Z,19.78
2018-12-11T12:50:57.784Z,20.44
2018-12-11T12:53:24.133Z,19.94
2018-12-11T12:55:50.484Z,20.04
2018-12-11T12:58:16.859Z,20.33
2018-12-11T13:00:43.309Z,20.23
2018-12-11T13:03:09.633Z,20.12
2018-12-11T13:05:36.033Z,20.22
2018-12-11T13:08:02.465Z,20.13
2018-12-11T13:10:28.819Z,20.30
2018-12-11T13:12:55.199Z,19.91
2018-12-11T13:15:21.604Z,19.55
2018-12-11T13:17:47.994Z,20.32
2018-12-11T13:20:14.371Z,20.28
2018-12-11T13:22:40.982Z,20.60
2018-12-11T13:25:07.264Z,20.77
2018-12-11T13:27:33.661Z,20.60
2018-12-11T13:30:00.040Z,21.99
2018-12-11T13:32:26.757Z,22.13
2018-12-11T13:34:53.147Z,21.11
2018-12-11T13:37:19.502Z,20.95
2018-12-11T13:39:45.829Z,21.55
2018-12-11T13:42:12.168Z,23.06
2018-12-11T13:44:38.533Z,21.44
2018-12-11T13:47:04.823Z,22.23
2018-12-11T13:49:31.222Z,21.97
2018-12-11T13:51:57.575Z,21.87
2018-12-11T13:54:24.278Z,21.88
2018-12-11T13:56:50.636Z,22.32
2018-12-11T13:59:17.020Z,21.36
2018-12-11T14:01:43.331Z,21.87
2018-12-11T14:04:09.716Z,20.63
2018-12-11T14:06:36.081Z,21.20
2018-12-11T14:09:03.527Z,20.87
2018-12-11T14:11:29.900Z,21.16
2018-12-11T14:13:56.277Z,21.39
2018-12-11T14:16:22.589Z,21.13
2018-12-11T14:18:49.007Z,21.08
2018-12-11T14:21:15.349Z,20.50
2018-12-11T14:23:41.712Z,21.61
2018-12-11T14:26:08.069Z,21.48
2018-12-11T14:28:34.414Z,20.50
2018-12-11T14:31:00.808Z,22.11
2018-12-11T14:33:27.154Z,21.45
2018-12-11T14:35:53.559Z,21.75
2018-12-11T14:38:20.048Z,21.32
2018-12-11T14:40:46.436Z,21.76
2018-12-11T14:43:12.903Z,21.55
2018-12-11T14:45:39.243Z,21.79
2018-12-11T14:48:05.572Z,21.11
2018-12-11T14:50:32.254Z,21.43
2018-12-11T14:52:58.664Z,20.70
2018-12-11T14:55:25.004Z,21.10
2018-12-11T14:57:51.438Z,21.05
2018-12-11T15:00:17.843Z,21.19
2018-12-11T15:02:44.197Z,21.84
2018-12-11T15:05:10.573Z,21.09
2018-12-11T15:07:36.925Z,21.26
2018-12-11T15:10:03.281Z,21.39
2018-12-11T15:12:29.613Z,21.58
2018-12-11T15:14:55.957Z,21.40
2018-12-11T15:17:22.398Z,21.45
2018-12-11T15:19:48.739Z,21.56
2018-12-11T15:22:15.138Z,21.39
2018-12-11T15:24:41.658Z,21.03
2018-12-11T15:27:08.006Z,20.79
2018-12-11T15:29:34.426Z,20.91
2018-12-11T15:32:00.787Z,21.25
2018-12-11T15:34:27.228Z,20.87
2018-12-11T15:36:53.757Z,21.05
2018-12-11T15:39:20.133Z,21.08
2018-12-11T15:41:46.527Z,21.22
2018-12-11T15:44:12.854Z,21.11
2018-12-11T15:46:39.207Z,20.94
2018-12-11T15:49:05.540Z,20.86
2018-12-11T15:51:31.892Z,20.75
2018-12-11T15:53:58.294Z,20.74
2018-12-11T15:56:24.726Z,20.98
2018-12-11T15:58:51.141Z,20.86
2018-12-11T16:01:17.542Z,21.08
2018-12-11T16:03:43.852Z,21.10
2018-12-11T16:06:10.256Z,20.72
2018-12-11T16:08:36.584Z,20.98
2018-12-11T16:11:02.914Z,20.86
2018-12-11T16:13:29.309Z,20.74
2018-12-11T16:15:55.659Z,20.65
2018-12-11T16:18:22.007Z,20.71
2018-12-11T16:20:48.339Z,20.58
2018-12-11T16:23:14.729Z,20.61
2018-12-11T16:25:41.096Z,20.78
2018-12-11T16:28:07.412Z,20.99
2018-12-11T16:30:33.803Z,20.51
2018-12-11T16:33:00.286Z,20.36
2018-12-11T16:35:26.709Z,20.29
2018-12-11T16:37:53.118Z,20.49
2018-12-11T16:40:19.585Z,20.28
2018-12-11T16:42:45.916Z,20.22
2018-12-11T16:45:12.294Z,19.97
2018-12-11T16:47:38.572Z,20.67
2018-12-11T16:50:04.926Z,20.22
2018-12-11T16:52:31.335Z,19.69
2018-12-11T16:54:57.736Z,20.17
2018-12-11T16:57:24.094Z,19.96
2018-12-11T16:59:50.476Z,20.03
2018-12-11T17:02:16.806Z,20.19
2018-12-11T17:04:43.196Z,20.14
2018-12-11T17:07:09.629Z,20.11
2018-12-11T17:09:36.008Z,20.07
2018-12-11T17:12:02.471Z,20.03
2018-12-11T17:14:28.840Z,20.03
2018-12-11T17:16:55.190Z,20.17
2018-12-11T17:19:21.527Z,20.18
2018-12-11T17:21:47.866Z,19.97
2018-12-11T17:24:14.259Z,19.86
2018-12-11T17:26:40.581Z,19.96
2018-12-11T17:29:06.987Z,20.15
2018-12-11T17:31:33.445Z,20.12
2018-12-11T17:33:59.792Z,19.99
2018-12-11T17:36:26.171Z,20.08
2018-12-11T17:38:52.508Z,19.95
2018-12-11T17:41:18.973Z,19.94
2018-12-11T17:43:45.304Z,20.11
2018-12-11T17:46:11.655Z,20.09
2018-12-11T17:48:41.553Z,19.87
2018-12-11T17:51:04.435Z,20.09
2018-12-11T17:53:30.788Z,20.04
2018-12-11T17:55:57.241Z,20.07
2018-12-11T17:58:23.672Z,20.17
2018-12-11T18:00:50.128Z,20.28
2018-12-11T18:03:16.565Z,20.45
2018-12-11T18:05:42.929Z,20.95
2018-12-11T18:08:09.308Z,21.12
2018-12-11T18:10:35.726Z,21.14
2018-12-11T18:13:02.123Z,21.23
2018-12-11T18:15:28.529Z,21.48
2018-12-11T18:17:54.885Z,21.40
2018-12-11T18:20:21.211Z,21.62
2018-12-11T18:22:47.584Z,21.21
2018-12-11T18:25:13.975Z,21.36
2018-12-11T18:27:40.347Z,21.42
2018-12-11T18:30:06.706Z,21.39
2018-12-11T18:32:33.109Z,21.52
2018-12-11T18:34:59.495Z,21.46
2018-12-11T18:37:25.894Z,21.56
2018-12-11T18:39:52.267Z,21.71
2018-12-11T18:42:18.665Z,21.65
2018-12-11T18:44:45.011Z,21.68
2018-12-11T18:47:11.390Z,21.74
2018-12-11T18:49:37.709Z,21.73
2018-12-11T18:52:04.046Z,21.78
2018-12-11T18:54:30.481Z,21.78
2018-12-11T18:56:56.816Z,21.80
2018-12-11T18:59:23.162Z,21.77
2018-12-11T19:01:49.531Z,21.67
2018-12-11T19:04:15.926Z,21.76
2018-12-11T19:06:42.347Z,21.87
2018-12-11T19:09:08.809Z,21.87
2018-12-11T19:11:35.139Z,21.79
2018-12-11T19:14:01.483Z,21.67
2018-12-11T19:16:27.925Z,21.68
2018-12-11T19:18:54.341Z,21.65
2018-12-11T19:21:20.694Z,21.68
2018-12-11T19:23:47.116Z,21.77
2018-12-11T19:26:13.450Z,21.76
2018-12-11T19:28:39.894Z,21.84
2018-12-11T19:31:06.291Z,21.86
2018-12-11T19:33:32.646Z,21.90
2018-12-11T19:35:58.988Z,21.99
2018-12-11T19:38:25.390Z,21.95
2018-12-11T19:40:51.713Z,21.90
2018-12-11T19:43:18.095Z,21.94
2018-12-11T19:45:44.403Z,21.88
2018-12-11T19:48:10.832Z,21.87
2018-12-11T19:50:37.255Z,21.94
2018-12-11T19:53:03.582Z,21.89
2018-12-11T19:55:29.983Z,21.99
2018-12-11T19:57:59.564Z,22.06
2018-12-11T20:00:22.716Z,22.10
2018-12-11T20:02:49.108Z,22.29
2018-12-11T20:05:15.452Z,22.40
2018-12-11T20:07:41.849Z,22.55
2018-12-11T20:10:08.216Z,22.70
2018-12-11T20:12:34.558Z,22.67
2018-12-11T20:15:04.641Z,22.61
2018-12-11T20:17:27.263Z,22.56
2018-12-11T20:19:53.659Z,22.77
2018-12-11T20:22:19.954Z,22.63
2018-12-11T20:24:46.359Z,22.62
2018-12-11T20:27:12.693Z,22.51
2018-12-11T20:29:39.090Z,22.57
2018-12-11T20:32:05.481Z,22.58
2018-12-11T20:34:31.802Z,22.66
2018-12-11T20:36:58.135Z,22.61
2018-12-11T20:39:24.546Z,22.81
2018-12-11T20:41:50.901Z,22.96
2018-12-11T20:44:17.200Z,23.09
2018-12-11T20:46:43.557Z,22.94
2018-12-11T20:49:09.939Z,23.17
2018-12-11T20:51:36.282Z,23.29
2018-12-11T20:54:02.673Z,23.23
2018-12-11T20:56:29.039Z,23.29
2018-12-11T20:58:55.369Z,23.25
2018-12-11T21:01:21.761Z,23.30
2018-12-11T21:03:48.100Z,23.25
2018-12-11T21:06:14.428Z,23.31
2018-12-11T21:08:40.896Z,23.27
2018-12-11T21:11:07.206Z,23.27
2018-12-11T21:13:33.555Z,23.24
2018-12-11T21:15:59.960Z,23.22
2018-12-11T21:18:26.328Z,23.44
2018-12-11T21:20:52.628Z,23.39
2018-12-11T21:23:19.018Z,23.40
2018-12-11T21:25:45.412Z,23.54
2018-12-11T21:28:11.736Z,23.76
2018-12-11T21:30:38.125Z,23.93
2018-12-11T21:33:04.532Z,24.03
2018-12-11T21:35:30.872Z,24.02
2018-12-11T21:37:57.453Z,24.06
2018-12-11T21:40:26.375Z,23.97
2018-12-11T21:42:52.697Z,24.10
2018-12-11T21:45:19.051Z,23.95
2018-12-11T21:47:45.430Z,23.90
2018-12-11T21:50:11.768Z,24.12
2018-12-11T21:52:38.128Z,24.09
2018-12-11T21:55:04.468Z,24.23
2018-12-11T21:57:30.852Z,24.23
2018-12-11T21:59:57.191Z,24.26
2018-12-11T22:02:23.561Z,24.39
2018-12-11T22:04:49.903Z,24.47
2018-12-11T22:07:18.183Z,24.57
2018-12-11T22:09:42.564Z,24.47
2018-12-11T22:12:08.963Z,24.51
2018-12-11T22:14:35.318Z,24.49
2018-12-11T22:17:01.667Z,24.51
2018-12-11T22:19:28.064Z,24.50
2018-12-11T22:21:54.421Z,24.39
2018-12-11T22:24:20.804Z,24.53
2018-12-11T22:26:47.175Z,24.69
2018-12-11T22:29:13.476Z,24.56
2018-12-11T22:31:39.812Z,24.49
2018-12-11T22:34:06.204Z,24.52
2018-12-11T22:36:32.581Z,24.52
2018-12-11T22:38:58.928Z,24.47
2018-12-11T22:41:25.288Z,24.45
2018-12-11T22:43:51.691Z,24.49
2018-12-11T22:46:18.020Z,24.59
2018-12-11T22:48:44.344Z,24.38
2018-12-11T22:51:10.682Z,24.53
2018-12-11T22:53:37.191Z,24.52
2018-12-11T22:56:03.547Z,24.60
2018-12-11T22:58:29.928Z,24.64
2018-12-11T23:00:56.310Z,24.54
2018-12-11T23:03:22.650Z,24.66
2018-12-11T23:05:49.083Z,24.75
2018-12-11T23:08:15.509Z,24.61
2018-12-11T23:10:41.883Z,24.49
2018-12-11T23:13:08.209Z,24.45
2018-12-11T23:15:34.541Z,24.72
2018-12-11T23:18:00.875Z,24.51
2018-12-11T23:20:27.268Z,24.48
2018-12-11T23:22:53.603Z,24.66
2018-12-11T23:25:19.936Z,24.64
2018-12-11T23:27:46.348Z,24.80
2018-12-11T23:30:12.747Z,24.80
2018-12-11T23:32:39.096Z,24.86
2018-12-11T23:35:05.455Z,24.83
2018-12-11T23:37:31.770Z,24.83
2018-12-11T23:39:58.111Z,24.90
2018-12-11T23:42:24.512Z,24.87
2018-12-11T23:44:50.864Z,24.85
2018-12-11T23:47:17.258Z,24.74
2018-12-11T23:49:43.584Z,24.76
2018-12-11T23:52:09.957Z,24.95
2018-12-11T23:54:36.281Z,24.63
2018-12-11T23:57:02.670Z,24.71
2018-12-11T23:59:29.367Z,24.92
